Time;durP1;ratioP1;P1;durP2;ratioP2;P2;SDS_P1;SDS_P2;PMS_P1;PMS_P2;Temp;Humidity;BMP_temperature;BMP_pressure;BME280_temperature;BME280_humidity;BME280_pressure;Samples;Min_cycle;Max_cycle;Signal;HPM_P1;HPM_P2
2022/07/13 00:00:40;;;;;;;1.67;1.57;;;;;;;18.86;57.00;100848.90;466999;111;922554;-75
2022/07/13 00:01:43;;;;;;;2.02;1.11;;;;;;;18.86;57.06;100853.59;466993;113;922701;-75
2022/07/13 00:02:46;;;;;;;4.57;1.39;;;;;;;18.84;57.23;100848.35;467002;113;922820;-75
2022/07/13 00:03:49;;;;;;;2.61;1.43;;;;;;;18.85;57.29;100849.19;467072;113;922805;-75
2022/07/13 00:04:53;;;;;;;2.10;1.06;;;;;;;18.85;57.32;100851.95;467020;113;922773;-75
2022/07/13 00:05:56;;;;;;;1.94;1.32;;;;;;;18.84;57.38;100848.35;466938;111;922548;-75
2022/07/13 00:06:59;;;;;;;1.62;1.17;;;;;;;18.85;57.45;100852.78;469303;112;922424;-75
2022/07/13 00:08:03;;;;;;;1.75;1.37;;;;;;;18.87;57.49;100846.97;470972;112;922732;-75
2022/07/13 00:09:06;;;;;;;1.37;1.27;;;;;;;18.86;57.41;100853.59;470967;112;922540;-75
2022/07/13 00:10:09;;;;;;;2.12;1.22;;;;;;;18.85;57.41;100850.02;470837;112;922758;-75
2022/07/13 00:11:12;;;;;;;1.34;1.21;;;;;;;18.84;57.40;100850.28;470940;112;922600;-75
2022/07/13 00:12:16;;;;;;;1.42;1.30;;;;;;;18.84;57.55;100853.04;470956;112;922552;-75
2022/07/13 00:13:19;;;;;;;2.05;1.52;;;;;;;18.84;57.66;100848.35;470947;112;922595;-75
2022/07/13 00:14:22;;;;;;;1.37;1.27;;;;;;;18.85;57.62;100846.42;469935;112;922597;-75
2022/07/13 00:15:26;;;;;;;2.54;1.36;;;;;;;18.85;57.53;100850.02;463593;114;922651;-75
2022/07/13 00:16:29;;;;;;;1.83;1.35;;;;;;;18.84;57.58;100848.35;463720;114;922475;-75
2022/07/13 00:17:32;;;;;;;2.73;1.51;;;;;;;18.85;57.58;100846.42;463726;114;923454;-75
2022/07/13 00:18:35;;;;;;;1.29;1.12;;;;;;;18.85;57.60;100854.72;463743;114;922734;-74
2022/07/13 00:19:38;;;;;;;2.06;1.28;;;;;;;18.85;57.66;100849.19;463721;114;923226;-74
2022/07/13 00:20:43;;;;;;;1.49;1.17;;;;;;;18.85;57.76;100844.50;463732;112;922470;-74
2022/07/13 00:21:46;;;;;;;3.76;1.31;;;;;;;18.87;57.76;100849.73;463637;114;922463;-75
2022/07/13 00:22:49;;;;;;;2.00;1.18;;;;;;;18.86;57.83;100839.78;463703;114;922424;-74
2022/07/13 00:23:52;;;;;;;1.81;1.17;;;;;;;18.87;57.84;100842.28;463696;114;922786;-75
2022/07/13 00:24:55;;;;;;;4.17;1.39;;;;;;;18.88;57.86;100848.64;463676;114;922526;-74
2022/07/13 00:25:58;;;;;;;1.60;1.20;;;;;;;18.88;57.79;100840.36;463695;114;923015;-75
2022/07/13 00:27:01;;;;;;;3.66;1.25;;;;;;;18.87;57.56;100847.81;463677;114;922555;-75
2022/07/13 00:28:04;;;;;;;1.53;1.07;;;;;;;18.86;57.48;100846.14;463651;114;923085;-75
2022/07/13 00:29:12;;;;;;;2.03;1.37;;;;;;;18.85;57.53;100849.19;463458;114;922842;-75
2022/07/13 00:30:16;;;;;;;2.27;1.38;;;;;;;18.84;57.50;100840.06;466378;111;922586;-75
2022/07/13 00:31:19;;;;;;;2.22;1.55;;;;;;;18.83;57.49;100835.62;466733;113;930168;-75
2022/07/13 00:32:23;;;;;;;1.41;1.25;;;;;;;18.82;57.45;100838.64;466772;113;930387;-75
2022/07/13 00:33:26;;;;;;;1.70;1.37;;;;;;;18.81;57.47;100839.73;466885;113;922570;-75
2022/07/13 00:34:30;;;;;;;2.72;1.42;;;;;;;18.79;57.41;100839.19;475571;111;922494;-75
2022/07/13 00:35:34;;;;;;;2.70;1.18;;;;;;;18.75;57.40;100842.45;475904;111;923652;-75
2022/07/13 00:36:37;;;;;;;3.66;1.56;;;;;;;18.72;57.29;100845.75;475885;111;923105;-75
2022/07/13 00:37:41;;;;;;;2.28;1.33;;;;;;;18.69;57.29;100837.14;475881;111;930357;-75
2022/07/13 00:38:44;;;;;;;2.16;1.17;;;;;;;18.65;57.27;100828.55;475987;111;922809;-75
2022/07/13 00:39:47;;;;;;;3.95;1.58;;;;;;;18.61;57.24;100846.75;476013;111;922998;-75
2022/07/13 00:40:50;;;;;;;2.16;1.66;;;;;;;18.58;57.34;100843.69;475825;111;922541;-75
2022/07/13 00:41:54;;;;;;;1.83;1.39;;;;;;;18.54;57.36;100842.48;475980;111;922937;-75
2022/07/13 00:42:57;;;;;;;2.62;1.56;;;;;;;18.50;57.37;100842.19;475975;111;922565;-75
2022/07/13 00:44:09;;;;;;;1.98;1.40;;;;;;;18.47;57.49;100842.70;475911;111;922792;-75
2022/07/13 00:45:12;;;;;;;3.83;1.19;;;;;;;18.47;57.66;100847.41;475732;111;922481;-75
2022/07/13 00:46:16;;;;;;;2.19;1.22;;;;;;;18.45;57.91;100842.14;475861;111;922535;-75
2022/07/13 00:47:20;;;;;;;2.83;1.42;;;;;;;18.47;58.04;100841.89;476013;111;922400;-74
2022/07/13 00:48:23;;;;;;;5.87;1.41;;;;;;;18.48;58.13;100843.53;476007;111;922494;-74
2022/07/13 00:49:27;;;;;;;4.08;1.53;;;;;;;18.50;58.02;100844.11;475900;111;922593;-75
2022/07/13 00:50:31;;;;;;;3.55;1.64;;;;;;;18.50;57.97;100847.72;475671;111;930246;-74
2022/07/13 00:51:35;;;;;;;2.74;1.40;;;;;;;18.50;58.13;100844.95;475807;111;930302;-75
2022/07/13 00:52:40;;;;;;;1.44;1.33;;;;;;;18.51;58.07;100841.10;475955;111;922569;-74
2022/07/13 00:53:43;;;;;;;2.51;1.69;;;;;;;18.51;58.18;100852.15;475803;111;922534;-75
2022/07/13 00:54:47;;;;;;;1.84;1.38;;;;;;;18.52;58.28;100844.70;466536;111;922647;-75
2022/07/13 00:55:50;;;;;;;1.54;1.44;;;;;;;18.54;58.26;100848.02;456997;114;922592;-74
2022/07/13 00:56:54;;;;;;;2.64;1.58;;;;;;;18.56;58.21;100840.34;455411;116;922686;-74
2022/07/13 00:57:59;;;;;;;3.65;1.45;;;;;;;18.56;58.22;100841.19;455345;116;930342;-75
2022/07/13 00:59:05;;;;;;;2.58;1.44;;;;;;;18.58;58.21;100840.93;455303;116;922941;-74
2022/07/13 01:00:11;;;;;;;1.67;1.44;;;;;;;18.58;58.20;100841.73;455296;116;922638;-75
2022/07/13 01:01:16;;;;;;;3.90;1.59;;;;;;;18.59;58.14;100842.57;455260;116;922599;-74
2022/07/13 01:13:22;;;;;;;3.22;1.56;;;;;;;18.88;56.88;100843.12;474853;110;933426;-74
2022/07/13 01:14:26;;;;;;;2.93;1.90;;;;;;;18.75;56.84;100850.74;476978;111;922585;-74
2022/07/13 01:15:30;;;;;;;3.34;1.74;;;;;;;18.74;56.93;100849.07;477124;111;922804;-74
2022/07/13 01:16:34;;;;;;;3.23;2.23;;;;;;;18.73;57.10;100850.19;477092;111;922576;-74
2022/07/13 01:17:38;;;;;;;2.28;1.36;;;;;;;18.72;57.21;100848.52;467710;113;922476;-74
2022/07/13 01:18:42;;;;;;;3.32;1.56;;;;;;;18.71;57.26;100854.30;471453;112;922584;-74
2022/07/13 01:19:46;;;;;;;2.57;1.72;;;;;;;18.70;57.31;100845.17;471477;112;922475;-74
2022/07/13 01:20:50;;;;;;;2.04;1.66;;;;;;;18.70;57.36;100852.62;471384;112;930332;-74
2022/07/13 01:21:57;;;;;;;1.77;1.67;;;;;;;18.68;57.27;100849.31;471350;112;922525;-74
2022/07/13 01:23:04;;;;;;;4.50;1.94;;;;;;;18.66;57.26;100849.56;471215;112;930593;-74
2022/07/13 01:24:15;;;;;;;3.54;1.88;;;;;;;18.76;57.37;100851.58;477080;110;946967;-75
2022/07/13 01:25:19;;;;;;;4.72;1.79;;;;;;;18.64;57.40;100854.50;465508;114;922735;-75
2022/07/13 01:26:22;;;;;;;2.40;1.54;;;;;;;18.64;57.44;100854.50;465525;113;922506;-76
2022/07/13 01:27:26;;;;;;;2.62;1.47;;;;;;;18.65;57.44;100853.41;465558;114;922796;-74
2022/07/13 01:28:29;;;;;;;1.87;1.57;;;;;;;18.64;57.51;100859.19;458102;114;930299;-74
2022/07/13 01:29:33;;;;;;;1.57;1.41;;;;;;;18.64;57.45;100854.50;458033;115;922658;-73
2022/07/13 01:30:36;;;;;;;1.64;1.54;;;;;;;18.62;57.46;100850.35;457472;115;922492;-73
2022/07/13 01:31:40;;;;;;;2.64;1.67;;;;;;;18.59;57.50;100857.22;457479;116;930291;-75
2022/07/13 01:32:49;;;;;;;1.68;1.46;;;;;;;18.56;57.49;100852.23;457357;114;922939;-75
2022/07/13 01:33:53;;;;;;;1.63;1.52;;;;;;;18.55;57.51;100853.32;454755;114;930290;-75
2022/07/13 01:34:57;;;;;;;2.73;1.56;;;;;;;18.53;57.56;100857.39;449601;118;923151;-74
2022/07/13 01:36:00;;;;;;;2.59;1.78;;;;;;;18.51;57.70;100848.55;449645;118;922533;-74
2022/07/13 01:37:03;;;;;;;2.96;1.52;;;;;;;18.50;57.67;100849.64;449568;118;923209;-75
2022/07/13 01:38:07;;;;;;;2.42;1.61;;;;;;;18.46;57.56;100857.63;449591;116;930126;-74
2022/07/13 01:39:10;;;;;;;4.21;1.81;;;;;;;18.41;57.52;100849.29;449518;118;922518;-75
2022/07/13 01:40:15;;;;;;;1.58;1.32;;;;;;;18.38;57.66;100855.31;449602;118;922886;-75
2022/07/13 01:41:19;;;;;;;1.86;1.75;;;;;;;18.32;57.69;100850.83;449570;118;922480;-74
2022/07/13 01:42:23;;;;;;;1.46;1.38;;;;;;;18.28;57.77;100845.00;440033;120;922574;-75
2022/07/13 01:43:29;;;;;;;3.31;1.69;;;;;;;18.25;57.76;100864.82;440495;118;922627;-74
2022/07/13 01:44:33;;;;;;;2.12;1.50;;;;;;;18.23;57.78;100855.98;449464;118;922526;-75
2022/07/13 01:45:36;;;;;;;3.59;1.72;;;;;;;18.20;57.77;100856.48;449547;118;922519;-75
2022/07/13 01:46:40;;;;;;;7.79;2.22;;;;;;;18.18;57.77;100860.61;449458;118;930334;-75
2022/07/13 01:47:46;;;;;;;3.92;1.75;;;;;;;18.13;57.73;100855.88;449549;116;930501;-75
2022/07/13 01:48:49;;;;;;;2.77;2.09;;;;;;;18.10;57.77;100852.77;449523;118;922887;-75
2022/07/13 01:49:53;;;;;;;1.97;1.81;;;;;;;18.06;57.84;100857.15;449615;118;922923;-75
2022/07/13 01:50:57;;;;;;;3.62;1.62;;;;;;;18.02;57.92;100859.60;448792;116;922690;-75
2022/07/13 01:52:00;;;;;;;1.93;1.59;;;;;;;18.00;57.99;100855.41;447617;118;922483;-74
2022/07/13 01:53:03;;;;;;;2.81;1.64;;;;;;;17.97;58.08;100858.70;447585;116;923048;-74
2022/07/13 01:54:06;;;;;;;3.25;1.76;;;;;;;17.93;58.13;100859.20;447604;118;922605;-74
2022/07/13 01:55:12;;;;;;;3.92;1.67;;;;;;;17.91;58.19;100866.08;447505;118;923014;-75
2022/07/13 01:56:18;;;;;;;2.32;1.69;;;;;;;17.90;58.38;100864.41;447313;118;922971;-75
2022/07/13 01:57:21;;;;;;;4.96;1.67;;;;;;;17.89;58.55;100858.05;447604;118;922518;-75
2022/07/13 01:58:24;;;;;;;3.39;1.94;;;;;;;17.91;58.62;100864.16;447598;116;922507;-75
2022/07/13 01:59:28;;;;;;;2.31;1.71;;;;;;;17.91;58.59;100857.80;447562;118;922519;-74
2022/07/13 02:00:31;;;;;;;2.86;1.64;;;;;;;17.93;58.65;100858.36;447517;118;930481;-75
2022/07/13 02:01:34;;;;;;;3.05;1.86;;;;;;;17.95;58.78;100858.11;447642;118;922549;-75
2022/07/13 02:02:37;;;;;;;2.06;1.41;;;;;;;17.97;58.87;100858.70;447610;116;922836;-74
2022/07/13 02:03:42;;;;;;;4.06;1.74;;;;;;;18.02;58.91;100856.00;447441;118;922904;-74
2022/07/13 02:04:46;;;;;;;2.16;1.62;;;;;;;18.04;58.89;100854.64;447530;118;922677;-74
2022/07/13 02:05:49;;;;;;;1.54;1.44;;;;;;;18.07;58.96;100856.06;447609;118;922554;-74
2022/07/13 02:06:54;;;;;;;5.47;2.07;;;;;;;18.10;58.89;100852.77;454319;115;922656;-74
2022/07/13 02:07:57;;;;;;;2.02;1.60;;;;;;;18.11;58.89;100855.28;461747;115;922540;-74
2022/07/13 02:09:03;;;;;;;2.57;1.88;;;;;;;18.15;58.88;100852.83;461549;115;922683;-75
2022/07/13 02:10:08;;;;;;;2.03;1.73;;;;;;;18.18;58.85;100855.09;461655;114;922650;-75
2022/07/13 02:11:16;;;;;;;2.96;1.48;;;;;;;18.19;58.81;100854.81;461636;115;922475;-75
2022/07/13 02:12:21;;;;;;;2.92;2.01;;;;;;;18.21;58.73;100858.16;461592;115;922595;-75
2022/07/13 02:13:24;;;;;;;2.84;1.79;;;;;;;18.23;58.65;100852.39;461608;115;922501;-75
2022/07/13 02:14:28;;;;;;;2.12;1.82;;;;;;;18.21;58.49;100849.88;458958;114;922501;-74
2022/07/13 02:15:31;;;;;;;1.87;1.62;;;;;;;18.20;58.44;100861.17;449231;118;922549;-75
2022/07/13 02:16:34;;;;;;;2.67;1.77;;;;;;;18.19;58.37;100856.77;449095;118;923052;-75
2022/07/13 02:17:38;;;;;;;4.28;1.84;;;;;;;18.16;58.33;100848.98;449051;118;922492;-75
2022/07/13 02:18:42;;;;;;;2.66;1.59;;;;;;;18.13;58.32;100857.80;449086;118;922922;-75
2022/07/13 02:19:46;;;;;;;2.43;1.66;;;;;;;18.12;58.53;100850.60;449149;118;922519;-74
2022/07/13 02:20:50;;;;;;;1.94;1.66;;;;;;;18.12;58.60;100858.88;449118;118;923007;-75
2022/07/13 02:21:53;;;;;;;2.24;1.77;;;;;;;18.13;58.50;100857.80;449226;118;922994;-75
2022/07/13 02:22:56;;;;;;;4.33;1.65;;;;;;;18.12;58.43;100856.12;449200;118;922537;-75
2022/07/13 02:24:02;;;;;;;2.02;1.75;;;;;;;18.08;58.33;100853.05;448903;117;922530;-75
2022/07/13 02:25:06;;;;;;;3.47;1.52;;;;;;;18.07;58.31;100856.06;449184;118;922549;-75
2022/07/13 02:26:09;;;;;;;3.30;1.65;;;;;;;18.03;58.31;100857.67;449090;118;923192;-75
2022/07/13 02:27:15;;;;;;;2.94;1.57;;;;;;;18.00;58.48;100856.25;448988;118;922595;-75
2022/07/13 02:28:18;;;;;;;2.24;1.64;;;;;;;18.00;58.64;100852.66;449078;118;922450;-75
2022/07/13 02:29:21;;;;;;;1.62;1.37;;;;;;;18.00;58.64;100855.41;449263;116;922628;-75
2022/07/13 02:30:25;;;;;;;4.83;1.69;;;;;;;17.98;58.78;100855.66;456340;116;923160;-75
2022/07/13 02:31:30;;;;;;;2.48;1.74;;;;;;;18.01;58.93;100857.92;457139;115;922426;-75
2022/07/13 02:32:34;;;;;;;4.42;1.61;;;;;;;18.04;58.99;100857.39;457355;116;922899;-75
2022/07/13 02:33:37;;;;;;;2.32;1.79;;;;;;;18.05;59.00;100849.95;458053;113;922467;-75
2022/07/13 02:34:40;;;;;;;1.59;1.47;;;;;;;18.06;59.04;100857.98;466508;113;922506;-75
2022/07/13 02:35:43;;;;;;;2.02;1.85;;;;;;;18.08;59.21;100857.73;466557;113;923107;-75
2022/07/13 02:36:47;;;;;;;2.25;1.51;;;;;;;18.10;59.35;100850.02;466527;113;922518;-75
2022/07/13 02:37:51;;;;;;;1.74;1.64;;;;;;;18.12;59.38;100847.84;466421;113;923019;-75
2022/07/13 02:38:54;;;;;;;1.76;1.46;;;;;;;18.13;59.40;100850.35;466490;113;922775;-75
2022/07/13 02:39:57;;;;;;;1.74;1.60;;;;;;;18.15;59.41;100848.14;466528;113;922640;-75
2022/07/13 02:41:00;;;;;;;3.24;1.90;;;;;;;18.16;59.40;100844.30;466480;113;922458;-75
2022/07/13 02:42:05;;;;;;;2.46;1.50;;;;;;;18.18;59.43;100850.41;466521;113;922524;-75
2022/07/13 02:43:08;;;;;;;2.34;1.74;;;;;;;18.20;59.42;100841.84;466328;113;922576;-75
2022/07/13 02:44:11;;;;;;;3.91;2.24;;;;;;;18.23;59.31;100844.95;466298;113;930260;-75
2022/07/13 02:45:16;;;;;;;2.78;1.45;;;;;;;18.24;59.17;100843.86;466348;113;923008;-75
2022/07/13 02:46:19;;;;;;;2.24;1.77;;;;;;;18.25;59.10;100847.42;466376;113;930253;-75
2022/07/13 02:47:23;;;;;;;3.06;1.84;;;;;;;18.25;59.06;100839.98;455158;113;922629;-75
2022/07/13 02:48:26;;;;;;;2.36;1.62;;;;;;;18.25;59.00;100836.38;447368;116;922735;-75
2022/07/13 02:49:29;;;;;;;2.06;1.57;;;;;;;18.25;59.01;100836.38;447430;118;928680;-74
2022/07/13 02:50:33;;;;;;;2.04;1.63;;;;;;;18.25;58.94;100836.38;447543;118;922668;-74
2022/07/13 02:51:36;;;;;;;5.46;1.93;;;;;;;18.26;58.90;100829.77;447486;118;922539;-74
2022/07/13 02:52:41;;;;;;;3.13;1.73;;;;;;;18.26;58.79;100836.13;447400;116;922621;-74
2022/07/13 02:53:44;;;;;;;3.31;1.38;;;;;;;18.26;58.89;100841.66;447438;118;923024;-74
2022/07/13 02:54:49;;;;;;;1.79;1.67;;;;;;;18.28;58.82;100835.88;447309;118;923482;-74
2022/07/13 02:55:52;;;;;;;2.24;1.75;;;;;;;18.28;58.70;100836.72;447518;118;922537;-74
2022/07/13 02:56:56;;;;;;;6.34;1.85;;;;;;;18.29;58.68;100832.87;438515;120;922651;-75
2022/07/13 02:58:00;;;;;;;1.93;1.57;;;;;;;18.30;58.76;100830.95;438935;118;922759;-75
2022/07/13 02:59:03;;;;;;;3.46;1.64;;;;;;;18.31;58.79;100835.34;447475;118;922985;-75
2022/07/13 03:00:08;;;;;;;1.80;1.51;;;;;;;18.33;58.90;100835.93;447461;118;922551;-75
2022/07/13 03:01:12;;;;;;;3.34;1.75;;;;;;;18.36;59.01;100838.16;447489;118;922999;-75
2022/07/13 03:02:17;;;;;;;2.74;2.27;;;;;;;18.39;59.10;100834.89;447452;118;922411;-75
2022/07/13 03:03:21;;;;;;;1.62;1.43;;;;;;;18.42;59.13;100833.52;447315;116;923238;-75
2022/07/13 03:04:26;;;;;;;4.48;1.65;;;;;;;18.44;59.18;100843.23;447417;118;923038;-75
2022/07/13 03:05:29;;;;;;;4.18;1.87;;;;;;;18.47;59.32;100831.65;447408;118;922785;-75
2022/07/13 03:06:33;;;;;;;2.91;1.71;;;;;;;18.50;59.23;100836.67;448953;116;923130;-75
2022/07/13 03:07:36;;;;;;;3.27;1.90;;;;;;;18.51;59.20;100834.74;455612;116;922721;-76
2022/07/13 03:08:40;;;;;;;4.26;1.95;;;;;;;18.53;59.20;100840.81;455630;116;922776;-75
2022/07/13 03:09:43;;;;;;;2.43;1.89;;;;;;;18.53;59.13;100838.89;455609;116;923013;-75
2022/07/13 03:10:48;;;;;;;3.58;1.68;;;;;;;18.54;59.14;100840.59;455517;116;930448;-75
2022/07/13 03:11:51;;;;;;;4.24;1.85;;;;;;;18.55;59.14;100836.75;455649;116;922492;-75
2022/07/13 03:12:55;;;;;;;2.29;1.68;;;;;;;18.56;59.12;100841.19;455554;114;922588;-75
2022/07/13 03:13:58;;;;;;;2.54;1.63;;;;;;;18.58;59.13;100838.17;455564;116;930805;-75
2022/07/13 03:15:02;;;;;;;2.91;1.67;;;;;;;18.58;59.13;100833.45;457054;116;922726;-75
2022/07/13 03:16:06;;;;;;;3.22;1.75;;;;;;;18.60;59.16;100833.20;457330;116;922575;-75
2022/07/13 03:17:09;;;;;;;1.96;1.76;;;;;;;18.61;59.14;100834.88;450264;117;930413;-75
2022/07/13 03:18:12;;;;;;;2.64;1.90;;;;;;;18.63;59.15;100838.22;450476;116;930366;-75
2022/07/13 03:19:16;;;;;;;2.02;1.76;;;;;;;18.65;59.06;100834.08;457395;115;922548;-75
2022/07/13 03:20:20;;;;;;;1.92;1.55;;;;;;;18.67;59.01;100833.83;457342;115;922472;-75
2022/07/13 03:21:24;;;;;;;4.04;1.88;;;;;;;18.69;58.90;100837.98;457275;116;923168;-75
2022/07/13 03:22:27;;;;;;;3.91;1.81;;;;;;;18.71;58.95;100834.96;457338;116;922931;-75
2022/07/13 03:23:30;;;;;;;2.89;1.83;;;;;;;18.75;58.97;100838.86;457191;114;922437;-75
2022/07/13 03:24:34;;;;;;;3.15;1.62;;;;;;;18.77;58.82;100831.15;450301;117;923188;-75
2022/07/13 03:25:37;;;;;;;2.18;1.68;;;;;;;18.80;58.67;100827.05;450560;116;922643;-75
2022/07/13 03:26:42;;;;;;;4.20;1.90;;;;;;;18.80;58.50;100825.09;457276;115;922492;-75
2022/07/13 03:27:45;;;;;;;4.99;1.76;;;;;;;18.80;58.43;100825.09;457345;114;922894;-75
2022/07/13 03:28:49;;;;;;;3.44;1.68;;;;;;;18.82;58.41;100822.06;457353;115;922516;-75
2022/07/13 03:29:52;;;;;;;4.14;2.01;;;;;;;18.82;58.43;100824.83;458126;115;922590;-75
2022/07/13 03:30:56;;;;;;;2.66;1.82;;;;;;;18.83;58.40;100824.58;457239;116;930523;-75
2022/07/13 03:31:59;;;;;;;3.49;1.98;;;;;;;18.84;58.38;100817.95;457250;115;930331;-75
2022/07/13 03:33:03;;;;;;;4.13;2.11;;;;;;;18.84;58.36;100829.02;457323;114;922901;-75
2022/07/13 03:34:06;;;;;;;2.51;1.82;;;;;;;18.87;58.45;100822.95;453077;114;930441;-75
2022/07/13 03:35:10;;;;;;;3.66;1.81;;;;;;;18.87;58.48;100817.42;449574;118;922675;-75
2022/07/13 03:36:15;;;;;;;3.90;2.18;;;;;;;18.89;58.56;100826.29;439874;120;922864;-75
2022/07/13 03:37:18;;;;;;;3.86;1.84;;;;;;;18.90;58.52;100827.96;440459;118;922876;-75
2022/07/13 03:38:23;;;;;;;2.22;2.01;;;;;;;18.91;58.49;100820.51;439813;120;923000;-75
2022/07/13 03:39:27;;;;;;;4.12;2.16;;;;;;;18.90;58.54;100816.91;440300;118;923077;-75
2022/07/13 03:40:32;;;;;;;2.72;2.44;;;;;;;18.90;58.47;100819.67;449387;118;922566;-75
2022/07/13 03:41:36;;;;;;;3.51;2.56;;;;;;;18.91;58.48;100823.27;449460;117;922542;-75
2022/07/13 03:42:39;;;;;;;3.19;2.59;;;;;;;18.90;58.38;100819.67;449433;116;922625;-75
2022/07/13 03:43:43;;;;;;;2.81;2.57;;;;;;;18.91;58.36;100820.51;448016;116;930372;-75
2022/07/13 03:44:46;;;;;;;3.06;2.59;;;;;;;18.91;58.27;100826.03;447347;118;930457;-75
2022/07/13 03:45:50;;;;;;;3.20;2.39;;;;;;;18.93;58.26;100823.82;447511;118;922670;-75
2022/07/13 03:46:53;;;;;;;4.06;2.26;;;;;;;18.93;58.16;100823.82;447405;118;922612;-75
2022/07/13 03:47:56;;;;;;;3.92;2.64;;;;;;;18.95;58.17;100818.88;447405;118;930553;-75
2022/07/13 03:48:59;;;;;;;6.49;2.01;;;;;;;18.96;58.11;100826.07;447475;118;923136;-75
2022/07/13 03:50:05;;;;;;;4.57;2.42;;;;;;;18.97;58.12;100825.78;447283;118;922513;-75
2022/07/13 03:51:08;;;;;;;2.69;1.98;;;;;;;18.99;58.09;100823.60;447425;118;922535;-75
2022/07/13 03:52:12;;;;;;;2.71;2.06;;;;;;;19.02;58.10;100822.25;447431;118;922547;-75
2022/07/13 03:53:16;;;;;;;3.20;2.14;;;;;;;19.05;58.05;100821.71;447410;116;922513;-75
2022/07/13 03:54:19;;;;;;;3.29;2.02;;;;;;;19.08;58.00;100818.41;447407;118;923046;-75
2022/07/13 03:55:22;;;;;;;3.06;1.98;;;;;;;19.09;58.05;100826.44;447514;118;922677;-75
2022/07/13 03:56:26;;;;;;;2.25;2.02;;;;;;;19.11;57.96;100815.96;447423;118;922505;-75
2022/07/13 03:57:29;;;;;;;3.56;1.99;;;;;;;19.14;57.91;100822.88;447519;118;923035;-75
2022/07/13 03:58:32;;;;;;;3.60;2.66;;;;;;;19.18;57.86;100824.03;447442;116;922648;-75
2022/07/13 03:59:35;;;;;;;2.06;1.84;;;;;;;19.20;57.84;100824.58;447489;118;922542;-75
2022/07/13 04:00:39;;;;;;;3.35;1.99;;;;;;;19.22;57.79;100822.39;447456;118;923001;-75
2022/07/13 04:01:43;;;;;;;5.11;2.27;;;;;;;19.24;57.76;100816.61;447438;118;922553;-75
2022/07/13 04:02:46;;;;;;;2.90;1.97;;;;;;;19.26;57.75;100822.68;447418;116;922854;-75
2022/07/13 04:03:51;;;;;;;2.51;2.21;;;;;;;19.29;57.76;100819.41;447426;118;922730;-74
2022/07/13 04:04:54;;;;;;;4.49;2.01;;;;;;;19.31;57.81;100820.78;447337;118;930455;-75
2022/07/13 04:05:59;;;;;;;4.11;1.90;;;;;;;19.34;57.82;100822.20;447268;118;930410;-75
2022/07/13 04:07:03;;;;;;;2.86;2.03;;;;;;;19.37;57.86;100821.65;447768;117;923000;-75
2022/07/13 04:08:07;;;;;;;4.10;2.24;;;;;;;19.40;57.91;100821.13;452944;115;922651;-75
2022/07/13 04:09:11;;;;;;;5.46;2.16;;;;;;;19.41;57.82;100815.31;464763;113;930645;-75
2022/07/13 04:10:22;;;;;;;2.87;2.06;;;;;;;19.45;57.74;100815.66;464363;114;922573;-75
2022/07/13 04:11:28;;;;;;;2.98;1.70;;;;;;;19.47;57.54;100818.97;461497;115;922549;-75
2022/07/13 04:12:31;;;;;;;1.80;1.67;;;;;;;19.50;57.27;100816.52;461450;115;922511;-75
2022/07/13 04:13:35;;;;;;;2.34;1.87;;;;;;;19.53;57.19;100810.44;461610;115;923094;-75
2022/07/13 04:14:38;;;;;;;4.00;1.76;;;;;;;19.54;57.03;100809.34;456643;115;923313;-75
2022/07/13 04:15:43;;;;;;;4.15;1.94;;;;;;;19.58;57.07;100812.39;449008;118;922944;-75
2022/07/13 04:16:46;;;;;;;2.28;1.73;;;;;;;19.61;57.15;100806.34;448804;118;923125;-75
2022/07/13 04:17:52;;;;;;;3.68;1.78;;;;;;;19.64;57.16;100816.02;448721;118;930853;-75
2022/07/13 04:18:56;;;;;;;2.32;1.99;;;;;;;19.67;57.16;100809.97;448889;118;922583;-75
2022/07/13 04:20:04;;;;;;;4.32;2.18;;;;;;;19.70;57.10;100810.25;448914;118;923244;-75
2022/07/13 04:21:07;;;;;;;2.14;1.77;;;;;;;19.73;56.82;100814.42;448841;118;922633;-74
2022/07/13 04:22:13;;;;;;;1.97;1.79;;;;;;;19.76;56.52;100803.64;448966;118;923281;-74
2022/07/13 04:23:17;;;;;;;2.02;1.82;;;;;;;19.80;56.38;100810.29;448827;118;922580;-74
2022/07/13 04:24:22;;;;;;;2.67;2.32;;;;;;;19.82;56.37;100804.49;439731;120;923409;-74
2022/07/13 04:25:27;;;;;;;3.56;2.21;;;;;;;19.84;56.37;100799.53;441799;118;922635;-74
2022/07/13 04:26:33;;;;;;;3.35;2.12;;;;;;;19.87;56.31;100802.58;448054;118;922671;-74
2022/07/13 04:27:38;;;;;;;3.95;2.32;;;;;;;19.90;56.35;100801.22;437523;121;922741;-74
2022/07/13 04:28:42;;;;;;;3.72;2.08;;;;;;;19.93;56.25;100801.50;438021;119;923234;-75
2022/07/13 04:29:49;;;;;;;2.51;2.01;;;;;;;19.97;55.84;100804.55;445992;115;922872;-74
2022/07/13 04:30:53;;;;;;;2.84;2.01;;;;;;;20.00;55.68;100798.48;441948;119;923068;-75
2022/07/13 04:31:56;;;;;;;2.37;2.17;;;;;;;20.02;55.55;100804.56;434951;119;930479;-74
2022/07/13 04:33:03;;;;;;;2.00;1.83;;;;;;;20.06;55.40;100796.56;435882;119;930524;-74
2022/07/13 04:34:08;;;;;;;2.13;1.89;;;;;;;20.08;55.42;100808.17;434855;121;922749;-74
2022/07/13 04:35:15;;;;;;;3.97;2.21;;;;;;;20.09;55.30;100799.61;439044;119;922670;-75
2022/07/13 04:36:22;;;;;;;3.16;2.05;;;;;;;20.11;55.28;100797.41;446023;119;923498;-74
2022/07/13 04:37:29;;;;;;;4.99;2.18;;;;;;;20.15;55.08;100792.98;438137;121;922641;-74
2022/07/13 04:38:34;;;;;;;3.97;2.27;;;;;;;20.18;54.93;100791.62;438688;119;922653;-74
2022/07/13 04:39:45;;;;;;;2.41;2.21;;;;;;;20.22;54.77;100787.19;440499;119;923199;-76
2022/07/13 04:40:52;;;;;;;2.71;1.89;;;;;;;20.24;54.64;100791.33;447260;116;922613;-75
2022/07/13 04:41:58;;;;;;;2.59;1.78;;;;;;;20.28;54.21;100791.64;454003;116;922680;-74
2022/07/13 04:43:01;;;;;;;3.82;2.08;;;;;;;20.29;53.92;100788.58;445486;119;922682;-74
2022/07/13 04:44:06;;;;;;;2.20;2.00;;;;;;;20.32;53.81;100796.38;446258;116;922699;-75
2022/07/13 04:45:11;;;;;;;2.44;2.02;;;;;;;20.35;53.67;100787.51;454092;116;922845;-74
2022/07/13 04:46:24;;;;;;;2.18;2.01;;;;;;;20.37;53.63;100790.84;445469;119;923112;-75
2022/07/13 04:47:29;;;;;;;3.89;2.21;;;;;;;20.38;53.65;100798.05;439511;119;923094;-74
2022/07/13 04:48:36;;;;;;;6.61;2.37;;;;;;;20.40;53.80;100790.28;439132;119;922647;-74
2022/07/13 04:49:43;;;;;;;2.37;2.13;;;;;;;20.43;53.90;100788.09;438527;119;923299;-74
2022/07/13 04:50:48;;;;;;;3.01;2.22;;;;;;;20.46;53.92;100790.29;446913;116;922568;-74
2022/07/13 04:51:52;;;;;;;3.32;2.66;;;;;;;20.49;53.96;100786.98;454230;116;923371;-73
2022/07/13 04:53:00;;;;;;;5.19;2.36;;;;;;;20.53;53.97;100793.63;452912;116;922766;-74
2022/07/13 04:54:10;;;;;;;3.24;2.39;;;;;;;20.55;54.01;100791.42;453286;116;922537;-74
2022/07/13 04:55:18;;;;;;;4.16;2.32;;;;;;;20.59;53.96;100786.98;453994;116;922833;-74
2022/07/13 04:56:25;;;;;;;3.99;2.30;;;;;;;20.60;53.83;100795.03;454015;116;923202;-75
2022/07/13 04:57:33;;;;;;;3.77;2.14;;;;;;;20.63;53.78;100788.92;445603;119;922675;-75
2022/07/13 04:58:38;;;;;;;3.54;2.57;;;;;;;20.65;53.74;100792.27;439070;119;922676;-75
2022/07/13 04:59:44;;;;;;;2.91;2.18;;;;;;;20.66;53.63;100791.16;431324;121;922718;-75
2022/07/13 05:00:52;;;;;;;5.44;2.44;;;;;;;20.69;53.58;100786.98;432660;119;922827;-75
2022/07/13 05:01:58;;;;;;;4.48;2.43;;;;;;;20.71;53.54;100784.78;445601;119;922585;-75
2022/07/13 05:03:06;;;;;;;4.96;2.75;;;;;;;20.73;53.54;100783.38;446281;116;922608;-75
2022/07/13 05:04:16;;;;;;;3.66;2.62;;;;;;;20.76;53.52;100790.33;445707;119;923246;-75
2022/07/13 05:05:22;;;;;;;5.23;2.53;;;;;;;20.78;53.33;100788.92;445697;119;922978;-75
2022/07/13 05:06:30;;;;;;;3.14;2.23;;;;;;;20.81;53.23;100787.55;435167;119;923085;-75